Anmare — V2EO3 — position and weather

sailwx.info

Track history (hours):
 
Tides and Currents Weather Stations Pressure Air Temp Water Temp Dewpoint Dewpoint Depression Visibility Wind Speed Wind Dir Waves Ship Positions

Anmare

Last reported at 2018-Feb-16 01:58 UTC. Time now 2018-Feb-24 15:39 UTC.
Position N 53°30' W 003°54'.
Warning: this ship's position is 8 days out of date.

Length 88 m; draft 5.6 m.

Type: Cargo ship. MMSI: 305493000.

Date/timePositionNaut miles runAvg speedWind from/ knotsBaromVisibWave heightAir tempDewpointWater temp
2018-Feb-16 01:58N 53°30' W 003°54'510.0
2018-Feb-16 01:30N 53°32' W 003°47'5 9.5
2018-Feb-16 01:00N 53°33' W 003°40'5 9.7
2018-Feb-16 00:30N 53°33' W 003°32'5 9.4
2018-Feb-16 00:00N 53°33' W 003°24'5 9.3
2018-Feb-15 23:31N 53°32' W 003°16'5 9.0
2018-Feb-15 23:00N 53°32' W 003°09'4 8.3
2018-Feb-15 22:31N 53°29' W 003°04'4 7.4
2018-Feb-15 22:00N 53°25' W 003°01'3 6.6
2018-Feb-15 21:30N 53°22' W 002°59'3 6.5
2018-Feb-15 21:00N 53°19' W 002°57'0 0.1
2018-Feb-15 20:30N 53°19' W 002°57'2 4.7
2018-Feb-15 20:01N 53°18' W 002°54'2 4.8
2018-Feb-15 19:30N 53°17' W 002°50'3 6.1
2018-Feb-15 19:00N 53°19' W 002°45'1 2.8
2018-Feb-15 18:29N 53°20' W 002°46'0 0.0
2018-Feb-15 17:58N 53°20' W 002°46'0 0.0
2018-Feb-15 17:28N 53°20' W 002°46'0 0.0
2018-Feb-15 16:58N 53°20' W 002°46'0 0.0
2018-Feb-15 16:28N 53°20' W 002°46'0 0.0
2018-Feb-15 15:53N 53°20' W 002°46'0 0.0
2018-Feb-15 15:28N 53°20' W 002°46'0 0.0
2018-Feb-15 14:58N 53°20' W 002°46'0 0.0
2018-Feb-15 14:28N 53°20' W 002°46'0 0.0
2018-Feb-15 13:58N 53°20' W 002°46'0 0.0
2018-Feb-15 13:28N 53°20' W 002°46'0 0.0
2018-Feb-15 12:58N 53°20' W 002°46'0 0.0
2018-Feb-15 12:29N 53°20' W 002°46'0 0.0
2018-Feb-15 11:55N 53°20' W 002°46'0 0.0
2018-Feb-15 11:29N 53°20' W 002°46'0 0.0
2018-Feb-15 10:58N 53°20' W 002°46'0 0.0
2018-Feb-15 10:26N 53°20' W 002°46'0 0.0
2018-Feb-15 09:58N 53°20' W 002°46'0 0.0
2018-Feb-15 09:29N 53°20' W 002°46'0 0.0
2018-Feb-15 08:58N 53°20' W 002°46'0 0.0
2018-Feb-15 08:28N 53°20' W 002°46'0 0.0
2018-Feb-15 07:58N 53°20' W 002°46'0 0.0
2018-Feb-15 07:26N 53°20' W 002°46'0 0.0
2018-Feb-15 06:59N 53°20' W 002°46'0 0.0
2018-Feb-15 06:23N 53°20' W 002°46'0 0.0
2018-Feb-15 05:58N 53°20' W 002°46'0 0.0
2018-Feb-15 05:29N 53°20' W 002°46'0 0.0
2018-Feb-15 04:58N 53°20' W 002°46'0 0.0
2018-Feb-15 04:28N 53°20' W 002°46'0 0.0
2018-Feb-15 03:59N 53°20' W 002°46'0 0.0
2018-Feb-15 03:28N 53°20' W 002°46'0 0.0
2018-Feb-15 02:58N 53°20' W 002°46'0 0.0
2018-Feb-15 02:28N 53°20' W 002°46'0 0.0
2018-Feb-15 01:59N 53°20' W 002°46'0 0.0
2018-Feb-15 01:28N 53°20' W 002°46'0 0.0
2018-Feb-15 00:56N 53°20' W 002°46'0 0.0
2018-Feb-15 00:25N 53°20' W 002°46'0 0.0
2018-Feb-14 23:58N 53°20' W 002°46'0 0.0
2018-Feb-14 23:29N 53°20' W 002°46'0 0.0
2018-Feb-14 22:55N 53°20' W 002°46'0 0.0
2018-Feb-14 22:28N 53°20' W 002°46'0 0.0
2018-Feb-14 21:58N 53°20' W 002°46'0 0.0
2018-Feb-14 21:28N 53°20' W 002°46'0 0.0
2018-Feb-14 20:59N 53°20' W 002°46'0 0.0
2018-Feb-14 20:26N 53°20' W 002°46'0 0.0
2018-Feb-14 19:59N 53°20' W 002°46'0 0.0
2018-Feb-14 19:28N 53°20' W 002°46'0 0.0
2018-Feb-14 18:58N 53°20' W 002°46'0 0.0
2018-Feb-14 18:29N 53°20' W 002°46'0 0.0
2018-Feb-14 17:59N 53°20' W 002°46'0 0.0
2018-Feb-14 17:28N 53°20' W 002°46'0 0.0
2018-Feb-14 16:58N 53°20' W 002°46'0 0.0
2018-Feb-14 16:28N 53°20' W 002°46'0 0.0
2018-Feb-14 15:59N 53°20' W 002°46'0 0.0
2018-Feb-14 15:28N 53°20' W 002°46'0 0.0
2018-Feb-14 14:58N 53°20' W 002°46'0 0.0
2018-Feb-14 14:25N 53°20' W 002°46'0 0.0
2018-Feb-14 13:58N 53°20' W 002°46'0 0.0
2018-Feb-14 13:28N 53°20' W 002°46'0 0.0
2018-Feb-14 12:55N 53°20' W 002°46'0 0.0
2018-Feb-14 12:25N 53°20' W 002°46'0 0.0
2018-Feb-14 11:58N 53°20' W 002°46'0 0.0
2018-Feb-14 11:28N 53°20' W 002°46'0 0.0
2018-Feb-14 10:56N 53°20' W 002°46'0 0.0
2018-Feb-14 10:22N 53°20' W 002°46'0 0.0
2018-Feb-14 09:58N 53°20' W 002°46'0 0.0
2018-Feb-14 09:29N 53°20' W 002°46'0 0.0
2018-Feb-14 08:52N 53°20' W 002°46'0 0.0
2018-Feb-14 08:28N 53°20' W 002°46'0 0.0
2018-Feb-14 07:58N 53°20' W 002°46'0 0.0
2018-Feb-14 07:29N 53°20' W 002°46'0 0.0
2018-Feb-14 06:49N 53°20' W 002°46'0 0.0
2018-Feb-14 06:29N 53°20' W 002°46'0 0.0
2018-Feb-14 05:55N 53°20' W 002°46'0 0.0
2018-Feb-14 05:26N 53°20' W 002°46'0 0.0
2018-Feb-14 04:58N 53°20' W 002°46'0 0.0
2018-Feb-14 04:28N 53°20' W 002°46'0 0.0
2018-Feb-14 03:58N 53°20' W 002°46'0 0.0
2018-Feb-14 03:28N 53°20' W 002°46'0 0.0
2018-Feb-14 02:58N 53°20' W 002°46'0 0.0
2018-Feb-14 02:25N 53°20' W 002°46'0 0.0
2018-Feb-14 01:59N 53°20' W 002°46'0 0.0
2018-Feb-14 01:29N 53°20' W 002°46'0 0.0
2018-Feb-14 00:58N 53°20' W 002°46'0 0.0
2018-Feb-14 00:29N 53°20' W 002°46'0 0.0
2018-Feb-13 23:58N 53°20' W 002°46'0 0.0
2018-Feb-13 23:29N 53°20' W 002°46'0 0.0
2018-Feb-13 22:59N 53°20' W 002°46'0 0.0
2018-Feb-13 22:28N 53°20' W 002°46'0 0.0
2018-Feb-13 21:55N 53°20' W 002°46'0 0.0
2018-Feb-13 21:28N 53°20' W 002°46'0 0.0
2018-Feb-13 20:56N 53°20' W 002°46'0 0.0
2018-Feb-13 20:29N 53°20' W 002°46'0 0.0
2018-Feb-13 19:59N 53°20' W 002°46'0 0.0
2018-Feb-13 19:28N 53°20' W 002°46'0 0.0
2018-Feb-13 18:58N 53°20' W 002°46'0 0.0
2018-Feb-13 18:25N 53°20' W 002°46'0 0.0
2018-Feb-13 17:58N 53°20' W 002°46'0 0.0
2018-Feb-13 17:29N 53°20' W 002°46'0 0.0
2018-Feb-13 16:59N 53°20' W 002°46'0 0.0
2018-Feb-13 16:29N 53°20' W 002°46'0 0.0
2018-Feb-13 15:59N 53°20' W 002°46'0 0.0
2018-Feb-13 15:28N 53°20' W 002°46'0 0.0
2018-Feb-13 14:50N 53°20' W 002°46'0 0.0
2018-Feb-13 14:29N 53°20' W 002°46'0 0.4
2018-Feb-13 14:00N 53°20' W 002°45'1 1.7
2018-Feb-13 13:30N 53°19' W 002°46'3 6.1
2018-Feb-13 13:00N 53°17' W 002°49'3 6.2
2018-Feb-13 12:30N 53°18' W 002°55'2 3.9
2018-Feb-13 12:00N 53°19' W 002°57'1 1.3
2018-Feb-13 11:30N 53°20' W 002°57'1 2.9
2018-Feb-13 11:00N 53°21' W 002°58'2 3.5
2018-Feb-13 10:30N 53°23' W 002°60'3 4.9
2018-Feb-13 10:00N 53°25' W 003°01'5 9.2
2018-Feb-13 09:30N 53°29' W 003°05'4 9.1
2018-Feb-13 09:00N 53°31' W 003°11'510.4
2018-Feb-13 08:30N 53°31' W 003°20'2 5.0
2018-Feb-13 08:00N 53°31' W 003°24'1 2.6
2018-Feb-13 07:30N 53°30' W 003°26'0 0.4
2018-Feb-13 06:58N 53°30' W 003°26'0 0.0
2018-Feb-13 06:25N 53°30' W 003°26'0 0.0
2018-Feb-13 05:58N 53°30' W 003°26'0 0.0
2018-Feb-13 05:28N 53°30' W 003°26'0 0.0
2018-Feb-13 04:58N 53°30' W 003°26'0 0.0
2018-Feb-13 04:28N 53°30' W 003°26'0 0.1
2018-Feb-13 03:58N 53°30' W 003°26'0 0.1
2018-Feb-13 03:25N 53°30' W 003°26'0 0.1
2018-Feb-13 02:58N 53°30' W 003°26'0 0.0
2018-Feb-13 02:28N 53°30' W 003°26'0 0.1
2018-Feb-13 01:55N 53°29' W 003°26'0 0.1
2018-Feb-13 01:28N 53°29' W 003°26'0 0.6
2018-Feb-13 01:00N 53°30' W 003°26'4 8.5
2018-Feb-13 00:30N 53°33' W 003°30'611.3
2018-Feb-13 00:00N 53°39' W 003°30'510.9
2018-Feb-12 23:30N 53°44' W 003°30'5 9.6
2018-Feb-12 23:00N 53°49' W 003°29'4 0.1
2018-Feb-11 17:29N 53°52' W 003°25'4 8.0
2018-Feb-11 16:56N 53°48' W 003°29'3 6.3
2018-Feb-11 16:28N 53°47' W 003°34'6 8.8
2018-Feb-11 15:49N 53°44' W 003°43'3 7.9
2018-Feb-11 15:30N 53°43' W 003°46'192 8.3
2018-Feb-10 16:25N 50°48' W 005°52'4 9.8
2018-Feb-10 16:00N 50°44' W 005°52'5 9.8
2018-Feb-10 15:30N 50°39' W 005°52'5 9.7
2018-Feb-10 15:00N 50°34' W 005°52'5 9.7
2018-Feb-10 14:27N 50°29' W 005°52'4 9.7
2018-Feb-10 14:00N 50°25' W 005°52'55 7.0
2018-Feb-10 06:12N 49°58' W 004°38'310.2
2018-Feb-10 05:54N 49°58' W 004°33'410.2
2018-Feb-10 05:30N 49°59' W 004°27'610.1
2018-Feb-10 04:54N 50°00' W 004°18'10 9.9
2018-Feb-10 03:55N 50°02' W 004°03'4 9.8
2018-Feb-10 03:30N 50°03' W 003°57'6 9.7
2018-Feb-10 02:55N 50°04' W 003°48'4 9.6
2018-Feb-10 02:30N 50°05' W 003°42'5 9.6
2018-Feb-10 02:00N 50°06' W 003°35'5 9.7
2018-Feb-10 01:30N 50°07' W 003°27'5 9.8
2018-Feb-10 01:00N 50°08' W 003°20'510.0
2018-Feb-10 00:30N 50°09' W 003°12'510.1
2018-Feb-10 00:00N 50°10' W 003°04'510.4
2018-Feb-09 23:30N 50°10' W 002°56'510.5
2018-Feb-09 23:00N 50°12' W 002°48'310.6
2018-Feb-09 22:46N 50°12' W 002°44'108 8.8
2018-Feb-09 10:31N 50°33' E 000°02'17 8.5
2018-Feb-09 08:31N 50°37' E 000°28'10 6.5
2018-Feb-09 07:01N 50°42' E 000°41'31 6.8
2018-Feb-09 02:30N 51°01' E 001°20'14 9.4
2018-Feb-09 01:00N 51°10' E 001°37'510.3
2018-Feb-09 00:30N 51°13' E 001°43'61 8.7
2018-Feb-08 17:30N 51°24' E 003°20'15 0.9
2018-Feb-08 01:30N 51°27' E 003°43'0 0.0
2018-Feb-08 00:57N 51°27' E 003°43'0 0.0
2018-Feb-08 00:27N 51°27' E 003°43'0 0.0
2018-Feb-07 23:57N 51°27' E 003°43'0 0.0
2018-Feb-07 23:27N 51°27' E 003°43'0 0.0
2018-Feb-07 22:51N 51°27' E 003°43'0 0.0
2018-Feb-07 22:30N 51°27' E 003°43'0 0.0
2018-Feb-07 21:57N 51°27' E 003°43'0 0.0
2018-Feb-07 21:27N 51°27' E 003°43'164 8.2
2018-Feb-07 01:27N 54°05' E 004°57'510.6
2018-Feb-07 00:59N 54°09' E 005°02'510.5
2018-Feb-07 00:29N 54°14' E 005°06'  
Track history (hours):
 
Tides and Currents Weather Stations Pressure Air Temp Water Temp Dewpoint Dewpoint Depression Visibility Wind Speed Wind Dir Waves Ship Positions

Anmare

Last reported at 2018-Feb-16 01:58 UTC. Time now 2018-Feb-24 15:39 UTC.
Position N 53°30' W 003°54'.
Warning: this ship's position is 8 days out of date.

Length 88 m; draft 5.6 m.

Type: Cargo ship. MMSI: 305493000.

Date/timePositionNaut miles runAvg speedWind from/ knotsBaromVisibWave heightAir tempDewpointWater temp
2018-Feb-16 01:58N 53°30' W 003°54'510.0
2018-Feb-16 01:30N 53°32' W 003°47'5 9.5
2018-Feb-16 01:00N 53°33' W 003°40'5 9.7
2018-Feb-16 00:30N 53°33' W 003°32'5 9.4
2018-Feb-16 00:00N 53°33' W 003°24'5 9.3
2018-Feb-15 23:31N 53°32' W 003°16'5 9.0
2018-Feb-15 23:00N 53°32' W 003°09'4 8.3
2018-Feb-15 22:31N 53°29' W 003°04'4 7.4
2018-Feb-15 22:00N 53°25' W 003°01'3 6.6
2018-Feb-15 21:30N 53°22' W 002°59'3 6.5
2018-Feb-15 21:00N 53°19' W 002°57'0 0.1
2018-Feb-15 20:30N 53°19' W 002°57'2 4.7
2018-Feb-15 20:01N 53°18' W 002°54'2 4.8
2018-Feb-15 19:30N 53°17' W 002°50'3 6.1
2018-Feb-15 19:00N 53°19' W 002°45'1 2.8
2018-Feb-15 18:29N 53°20' W 002°46'0 0.0
2018-Feb-15 17:58N 53°20' W 002°46'0 0.0
2018-Feb-15 17:28N 53°20' W 002°46'0 0.0
2018-Feb-15 16:58N 53°20' W 002°46'0 0.0
2018-Feb-15 16:28N 53°20' W 002°46'0 0.0
2018-Feb-15 15:53N 53°20' W 002°46'0 0.0
2018-Feb-15 15:28N 53°20' W 002°46'0 0.0
2018-Feb-15 14:58N 53°20' W 002°46'0 0.0
2018-Feb-15 14:28N 53°20' W 002°46'0 0.0
2018-Feb-15 13:58N 53°20' W 002°46'0 0.0
2018-Feb-15 13:28N 53°20' W 002°46'0 0.0
2018-Feb-15 12:58N 53°20' W 002°46'0 0.0
2018-Feb-15 12:29N 53°20' W 002°46'0 0.0
2018-Feb-15 11:55N 53°20' W 002°46'0 0.0
2018-Feb-15 11:29N 53°20' W 002°46'0 0.0
2018-Feb-15 10:58N 53°20' W 002°46'0 0.0
2018-Feb-15 10:26N 53°20' W 002°46'0 0.0
2018-Feb-15 09:58N 53°20' W 002°46'0 0.0
2018-Feb-15 09:29N 53°20' W 002°46'0 0.0
2018-Feb-15 08:58N 53°20' W 002°46'0 0.0
2018-Feb-15 08:28N 53°20' W 002°46'0 0.0
2018-Feb-15 07:58N 53°20' W 002°46'0 0.0
2018-Feb-15 07:26N 53°20' W 002°46'0 0.0
2018-Feb-15 06:59N 53°20' W 002°46'0 0.0
2018-Feb-15 06:23N 53°20' W 002°46'0 0.0
2018-Feb-15 05:58N 53°20' W 002°46'0 0.0
2018-Feb-15 05:29N 53°20' W 002°46'0 0.0
2018-Feb-15 04:58N 53°20' W 002°46'0 0.0
2018-Feb-15 04:28N 53°20' W 002°46'0 0.0
2018-Feb-15 03:59N 53°20' W 002°46'0 0.0
2018-Feb-15 03:28N 53°20' W 002°46'0 0.0
2018-Feb-15 02:58N 53°20' W 002°46'0 0.0
2018-Feb-15 02:28N 53°20' W 002°46'0 0.0
2018-Feb-15 01:59N 53°20' W 002°46'0 0.0
2018-Feb-15 01:28N 53°20' W 002°46'0 0.0
2018-Feb-15 00:56N 53°20' W 002°46'0 0.0
2018-Feb-15 00:25N 53°20' W 002°46'0 0.0
2018-Feb-14 23:58N 53°20' W 002°46'0 0.0
2018-Feb-14 23:29N 53°20' W 002°46'0 0.0
2018-Feb-14 22:55N 53°20' W 002°46'0 0.0
2018-Feb-14 22:28N 53°20' W 002°46'0 0.0
2018-Feb-14 21:58N 53°20' W 002°46'0 0.0
2018-Feb-14 21:28N 53°20' W 002°46'0 0.0
2018-Feb-14 20:59N 53°20' W 002°46'0 0.0
2018-Feb-14 20:26N 53°20' W 002°46'0 0.0
2018-Feb-14 19:59N 53°20' W 002°46'0 0.0
2018-Feb-14 19:28N 53°20' W 002°46'0 0.0
2018-Feb-14 18:58N 53°20' W 002°46'0 0.0
2018-Feb-14 18:29N 53°20' W 002°46'0 0.0
2018-Feb-14 17:59N 53°20' W 002°46'0 0.0
2018-Feb-14 17:28N 53°20' W 002°46'0 0.0
2018-Feb-14 16:58N 53°20' W 002°46'0 0.0
2018-Feb-14 16:28N 53°20' W 002°46'0 0.0
2018-Feb-14 15:59N 53°20' W 002°46'0 0.0
2018-Feb-14 15:28N 53°20' W 002°46'0 0.0
2018-Feb-14 14:58N 53°20' W 002°46'0 0.0
2018-Feb-14 14:25N 53°20' W 002°46'0 0.0
2018-Feb-14 13:58N 53°20' W 002°46'0 0.0
2018-Feb-14 13:28N 53°20' W 002°46'0 0.0
2018-Feb-14 12:55N 53°20' W 002°46'0 0.0
2018-Feb-14 12:25N 53°20' W 002°46'0 0.0
2018-Feb-14 11:58N 53°20' W 002°46'0 0.0
2018-Feb-14 11:28N 53°20' W 002°46'0 0.0
2018-Feb-14 10:56N 53°20' W 002°46'0 0.0
2018-Feb-14 10:22N 53°20' W 002°46'0 0.0
2018-Feb-14 09:58N 53°20' W 002°46'0 0.0
2018-Feb-14 09:29N 53°20' W 002°46'0 0.0
2018-Feb-14 08:52N 53°20' W 002°46'0 0.0
2018-Feb-14 08:28N 53°20' W 002°46'0 0.0
2018-Feb-14 07:58N 53°20' W 002°46'0 0.0
2018-Feb-14 07:29N 53°20' W 002°46'0 0.0
2018-Feb-14 06:49N 53°20' W 002°46'0 0.0
2018-Feb-14 06:29N 53°20' W 002°46'0 0.0
2018-Feb-14 05:55N 53°20' W 002°46'0 0.0
2018-Feb-14 05:26N 53°20' W 002°46'0 0.0
2018-Feb-14 04:58N 53°20' W 002°46'0 0.0
2018-Feb-14 04:28N 53°20' W 002°46'0 0.0
2018-Feb-14 03:58N 53°20' W 002°46'0 0.0
2018-Feb-14 03:28N 53°20' W 002°46'0 0.0
2018-Feb-14 02:58N 53°20' W 002°46'0 0.0
2018-Feb-14 02:25N 53°20' W 002°46'0 0.0
2018-Feb-14 01:59N 53°20' W 002°46'0 0.0
2018-Feb-14 01:29N 53°20' W 002°46'0 0.0
2018-Feb-14 00:58N 53°20' W 002°46'0 0.0
2018-Feb-14 00:29N 53°20' W 002°46'0 0.0
2018-Feb-13 23:58N 53°20' W 002°46'0 0.0
2018-Feb-13 23:29N 53°20' W 002°46'0 0.0
2018-Feb-13 22:59N 53°20' W 002°46'0 0.0
2018-Feb-13 22:28N 53°20' W 002°46'0 0.0
2018-Feb-13 21:55N 53°20' W 002°46'0 0.0
2018-Feb-13 21:28N 53°20' W 002°46'0 0.0
2018-Feb-13 20:56N 53°20' W 002°46'0 0.0
2018-Feb-13 20:29N 53°20' W 002°46'0 0.0
2018-Feb-13 19:59N 53°20' W 002°46'0 0.0
2018-Feb-13 19:28N 53°20' W 002°46'0 0.0
2018-Feb-13 18:58N 53°20' W 002°46'0 0.0
2018-Feb-13 18:25N 53°20' W 002°46'0 0.0
2018-Feb-13 17:58N 53°20' W 002°46'0 0.0
2018-Feb-13 17:29N 53°20' W 002°46'0 0.0
2018-Feb-13 16:59N 53°20' W 002°46'0 0.0
2018-Feb-13 16:29N 53°20' W 002°46'0 0.0
2018-Feb-13 15:59N 53°20' W 002°46'0 0.0
2018-Feb-13 15:28N 53°20' W 002°46'0 0.0
2018-Feb-13 14:50N 53°20' W 002°46'0 0.0
2018-Feb-13 14:29N 53°20' W 002°46'0 0.4
2018-Feb-13 14:00N 53°20' W 002°45'1 1.7
2018-Feb-13 13:30N 53°19' W 002°46'3 6.1
2018-Feb-13 13:00N 53°17' W 002°49'3 6.2
2018-Feb-13 12:30N 53°18' W 002°55'2 3.9
2018-Feb-13 12:00N 53°19' W 002°57'1 1.3
2018-Feb-13 11:30N 53°20' W 002°57'1 2.9
2018-Feb-13 11:00N 53°21' W 002°58'2 3.5
2018-Feb-13 10:30N 53°23' W 002°60'3 4.9
2018-Feb-13 10:00N 53°25' W 003°01'5 9.2
2018-Feb-13 09:30N 53°29' W 003°05'4 9.1
2018-Feb-13 09:00N 53°31' W 003°11'510.4
2018-Feb-13 08:30N 53°31' W 003°20'2 5.0
2018-Feb-13 08:00N 53°31' W 003°24'1 2.6
2018-Feb-13 07:30N 53°30' W 003°26'0 0.4
2018-Feb-13 06:58N 53°30' W 003°26'0 0.0
2018-Feb-13 06:25N 53°30' W 003°26'0 0.0
2018-Feb-13 05:58N 53°30' W 003°26'0 0.0
2018-Feb-13 05:28N 53°30' W 003°26'0 0.0
2018-Feb-13 04:58N 53°30' W 003°26'0 0.0
2018-Feb-13 04:28N 53°30' W 003°26'0 0.1
2018-Feb-13 03:58N 53°30' W 003°26'0 0.1
2018-Feb-13 03:25N 53°30' W 003°26'0 0.1
2018-Feb-13 02:58N 53°30' W 003°26'0 0.0
2018-Feb-13 02:28N 53°30' W 003°26'0 0.1
2018-Feb-13 01:55N 53°29' W 003°26'0 0.1
2018-Feb-13 01:28N 53°29' W 003°26'0 0.6
2018-Feb-13 01:00N 53°30' W 003°26'4 8.5
2018-Feb-13 00:30N 53°33' W 003°30'611.3
2018-Feb-13 00:00N 53°39' W 003°30'510.9
2018-Feb-12 23:30N 53°44' W 003°30'5 9.6
2018-Feb-12 23:00N 53°49' W 003°29'4 0.1
2018-Feb-11 17:29N 53°52' W 003°25'4 8.0
2018-Feb-11 16:56N 53°48' W 003°29'3 6.3
2018-Feb-11 16:28N 53°47' W 003°34'6 8.8
2018-Feb-11 15:49N 53°44' W 003°43'3 7.9
2018-Feb-11 15:30N 53°43' W 003°46'192 8.3
2018-Feb-10 16:25N 50°48' W 005°52'4 9.8
2018-Feb-10 16:00N 50°44' W 005°52'5 9.8
2018-Feb-10 15:30N 50°39' W 005°52'5 9.7
2018-Feb-10 15:00N 50°34' W 005°52'5 9.7
2018-Feb-10 14:27N 50°29' W 005°52'4 9.7
2018-Feb-10 14:00N 50°25' W 005°52'55 7.0
2018-Feb-10 06:12N 49°58' W 004°38'310.2
2018-Feb-10 05:54N 49°58' W 004°33'410.2
2018-Feb-10 05:30N 49°59' W 004°27'610.1
2018-Feb-10 04:54N 50°00' W 004°18'10 9.9
2018-Feb-10 03:55N 50°02' W 004°03'4 9.8
2018-Feb-10 03:30N 50°03' W 003°57'6 9.7
2018-Feb-10 02:55N 50°04' W 003°48'4 9.6
2018-Feb-10 02:30N 50°05' W 003°42'5 9.6
2018-Feb-10 02:00N 50°06' W 003°35'5 9.7
2018-Feb-10 01:30N 50°07' W 003°27'5 9.8
2018-Feb-10 01:00N 50°08' W 003°20'510.0
2018-Feb-10 00:30N 50°09' W 003°12'510.1
2018-Feb-10 00:00N 50°10' W 003°04'510.4
2018-Feb-09 23:30N 50°10' W 002°56'510.5
2018-Feb-09 23:00N 50°12' W 002°48'310.6
2018-Feb-09 22:46N 50°12' W 002°44'108 8.8
2018-Feb-09 10:31N 50°33' E 000°02'17 8.5
2018-Feb-09 08:31N 50°37' E 000°28'10 6.5
2018-Feb-09 07:01N 50°42' E 000°41'31 6.8
2018-Feb-09 02:30N 51°01' E 001°20'14 9.4
2018-Feb-09 01:00N 51°10' E 001°37'510.3
2018-Feb-09 00:30N 51°13' E 001°43'61 8.7
2018-Feb-08 17:30N 51°24' E 003°20'15 0.9
2018-Feb-08 01:30N 51°27' E 003°43'0 0.0
2018-Feb-08 00:57N 51°27' E 003°43'0 0.0
2018-Feb-08 00:27N 51°27' E 003°43'0 0.0
2018-Feb-07 23:57N 51°27' E 003°43'0 0.0
2018-Feb-07 23:27N 51°27' E 003°43'0 0.0
2018-Feb-07 22:51N 51°27' E 003°43'0 0.0
2018-Feb-07 22:30N 51°27' E 003°43'0 0.0
2018-Feb-07 21:57N 51°27' E 003°43'0 0.0
2018-Feb-07 21:27N 51°27' E 003°43'164 8.2
2018-Feb-07 01:27N 54°05' E 004°57'510.6
2018-Feb-07 00:59N 54°09' E 005°02'510.5
2018-Feb-07 00:29N 54°14' E 005°06'  

Dump ship's entire track history